sensor_id;sensor_type;location;lat;lon;timestamp;temperature;humidity
11650;DHT22;5881;48.522;7.682;2022-10-31T00:00:40;10.90;99.90
11650;DHT22;5881;48.522;7.682;2022-10-31T00:03:06;10.90;99.90
11650;DHT22;5881;48.522;7.682;2022-10-31T00:05:31;10.90;99.90
11650;DHT22;5881;48.522;7.682;2022-10-31T00:07:57;10.80;99.90
11650;DHT22;5881;48.522;7.682;2022-10-31T00:10:22;10.80;99.90
11650;DHT22;5881;48.522;7.682;2022-10-31T00:12:48;10.80;99.90
11650;DHT22;5881;48.522;7.682;2022-10-31T00:15:14;10.80;99.90
11650;DHT22;5881;48.522;7.682;2022-10-31T00:17:39;10.80;99.90
11650;DHT22;5881;48.522;7.682;2022-10-31T00:20:05;10.90;99.90
11650;DHT22;5881;48.522;7.682;2022-10-31T00:22:31;10.80;99.90
11650;DHT22;5881;48.522;7.682;2022-10-31T00:24:57;10.90;99.90
11650;DHT22;5881;48.522;7.682;2022-10-31T00:27:22;10.80;99.90
11650;DHT22;5881;48.522;7.682;2022-10-31T00:29:48;10.70;99.90
11650;DHT22;5881;48.522;7.682;2022-10-31T00:32:13;10.80;99.90
11650;DHT22;5881;48.522;7.682;2022-10-31T00:34:39;10.70;99.90
11650;DHT22;5881;48.522;7.682;2022-10-31T00:37:04;10.80;99.90
11650;DHT22;5881;48.522;7.682;2022-10-31T00:39:30;10.80;99.90
11650;DHT22;5881;48.522;7.682;2022-10-31T00:41:56;10.70;99.90
11650;DHT22;5881;48.522;7.682;2022-10-31T00:44:21;10.60;99.90
11650;DHT22;5881;48.522;7.682;2022-10-31T00:46:47;10.70;99.90
11650;DHT22;5881;48.522;7.682;2022-10-31T00:49:12;10.70;99.90
11650;DHT22;5881;48.522;7.682;2022-10-31T00:51:38;10.60;99.90
11650;DHT22;5881;48.522;7.682;2022-10-31T00:54:03;10.70;99.90
11650;DHT22;5881;48.522;7.682;2022-10-31T00:56:29;10.60;99.90
11650;DHT22;5881;48.522;7.682;2022-10-31T00:58:55;10.70;99.90
11650;DHT22;5881;48.522;7.682;2022-10-31T01:01:20;10.60;99.90
11650;DHT22;5881;48.522;7.682;2022-10-31T01:03:46;10.60;99.90
11650;DHT22;5881;48.522;7.682;2022-10-31T01:06:13;10.60;99.90
11650;DHT22;5881;48.522;7.682;2022-10-31T01:08:39;10.60;99.90
11650;DHT22;5881;48.522;7.682;2022-10-31T01:13:30;10.60;99.90
11650;DHT22;5881;48.522;7.682;2022-10-31T01:16:00;10.60;99.90
11650;DHT22;5881;48.522;7.682;2022-10-31T01:18:26;10.60;99.90
11650;DHT22;5881;48.522;7.682;2022-10-31T01:21:10;10.60;99.90
11650;DHT22;5881;48.522;7.682;2022-10-31T01:23:36;10.50;99.90
11650;DHT22;5881;48.522;7.682;2022-10-31T01:26:20;10.50;99.90
11650;DHT22;5881;48.522;7.682;2022-10-31T01:31:13;10.60;99.90
11650;DHT22;5881;48.522;7.682;2022-10-31T01:33:39;10.50;99.90
11650;DHT22;5881;48.522;7.682;2022-10-31T01:38:40;10.70;99.90
11650;DHT22;5881;48.522;7.682;2022-10-31T01:41:06;10.70;99.90
11650;DHT22;5881;48.522;7.682;2022-10-31T01:43:57;10.80;99.90
11650;DHT22;5881;48.522;7.682;2022-10-31T01:46:36;10.70;99.90
11650;DHT22;5881;48.522;7.682;2022-10-31T01:49:05;10.70;99.90
11650;DHT22;5881;48.522;7.682;2022-10-31T01:51:36;10.60;99.90
11650;DHT22;5881;48.522;7.682;2022-10-31T01:54:07;10.70;99.90
11650;DHT22;5881;48.522;7.682;2022-10-31T01:56:36;10.60;99.90
11650;DHT22;5881;48.522;7.682;2022-10-31T01:59:03;10.80;99.90
11650;DHT22;5881;48.522;7.682;2022-10-31T02:01:30;10.70;99.90
11650;DHT22;5881;48.522;7.682;2022-10-31T02:03:56;10.70;99.90
11650;DHT22;5881;48.522;7.682;2022-10-31T02:06:37;10.60;99.90
11650;DHT22;5881;48.522;7.682;2022-10-31T02:09:05;10.50;99.90
11650;DHT22;5881;48.522;7.682;2022-10-31T02:11:31;10.50;99.90
11650;DHT22;5881;48.522;7.682;2022-10-31T02:14:00;10.50;99.90
11650;DHT22;5881;48.522;7.682;2022-10-31T02:16:26;10.60;99.90
11650;DHT22;5881;48.522;7.682;2022-10-31T02:18:52;10.60;99.90
11650;DHT22;5881;48.522;7.682;2022-10-31T02:21:47;10.70;99.90
11650;DHT22;5881;48.522;7.682;2022-10-31T02:24:37;10.50;99.90
11650;DHT22;5881;48.522;7.682;2022-10-31T02:30:14;10.50;99.90
11650;DHT22;5881;48.522;7.682;2022-10-31T02:38:24;10.40;99.90
11650;DHT22;5881;48.522;7.682;2022-10-31T02:43:35;10.50;99.90
11650;DHT22;5881;48.522;7.682;2022-10-31T02:46:26;10.50;99.90
11650;DHT22;5881;48.522;7.682;2022-10-31T02:48:55;10.50;99.90
11650;DHT22;5881;48.522;7.682;2022-10-31T02:51:22;10.50;99.90
11650;DHT22;5881;48.522;7.682;2022-10-31T02:53:51;10.60;99.90
11650;DHT22;5881;48.522;7.682;2022-10-31T02:56:18;10.50;99.90
11650;DHT22;5881;48.522;7.682;2022-10-31T02:58:56;10.50;99.90
11650;DHT22;5881;48.522;7.682;2022-10-31T03:01:39;10.40;99.90
11650;DHT22;5881;48.522;7.682;2022-10-31T03:09:46;10.40;99.90
11650;DHT22;5881;48.522;7.682;2022-10-31T03:15:21;10.30;99.90
11650;DHT22;5881;48.522;7.682;2022-10-31T03:17:59;10.20;99.90
11650;DHT22;5881;48.522;7.682;2022-10-31T03:20:42;10.10;99.90
11650;DHT22;5881;48.522;7.682;2022-10-31T03:23:14;10.10;99.90
11650;DHT22;5881;48.522;7.682;2022-10-31T03:25:42;10.30;99.90
11650;DHT22;5881;48.522;7.682;2022-10-31T03:28:10;10.20;99.90
11650;DHT22;5881;48.522;7.682;2022-10-31T03:30:38;10.10;99.90
11650;DHT22;5881;48.522;7.682;2022-10-31T03:33:09;10.30;99.90
11650;DHT22;5881;48.522;7.682;2022-10-31T03:35:36;10.20;99.90
11650;DHT22;5881;48.522;7.682;2022-10-31T03:38:02;10.20;99.90
11650;DHT22;5881;48.522;7.682;2022-10-31T03:40:29;10.20;99.90
11650;DHT22;5881;48.522;7.682;2022-10-31T03:43:03;10.20;99.90
11650;DHT22;5881;48.522;7.682;2022-10-31T03:45:31;10.20;99.90
11650;DHT22;5881;48.522;7.682;2022-10-31T03:48:00;10.20;99.90
11650;DHT22;5881;48.522;7.682;2022-10-31T03:50:32;10.20;99.90
11650;DHT22;5881;48.522;7.682;2022-10-31T03:53:09;10.20;99.90
11650;DHT22;5881;48.522;7.682;2022-10-31T03:55:52;10.30;99.90
11650;DHT22;5881;48.522;7.682;2022-10-31T03:58:28;10.20;99.90
11650;DHT22;5881;48.522;7.682;2022-10-31T04:00:57;10.40;99.90
11650;DHT22;5881;48.522;7.682;2022-10-31T04:03:30;10.30;99.90
11650;DHT22;5881;48.522;7.682;2022-10-31T04:05:59;10.40;99.90
11650;DHT22;5881;48.522;7.682;2022-10-31T04:08:29;10.50;99.90
11650;DHT22;5881;48.522;7.682;2022-10-31T04:10:57;10.50;99.90
11650;DHT22;5881;48.522;7.682;2022-10-31T04:13:29;10.50;99.90
11650;DHT22;5881;48.522;7.682;2022-10-31T04:15:56;10.50;99.90
11650;DHT22;5881;48.522;7.682;2022-10-31T04:18:23;10.60;99.90
11650;DHT22;5881;48.522;7.682;2022-10-31T04:20:49;10.70;99.90
11650;DHT22;5881;48.522;7.682;2022-10-31T04:23:25;10.80;99.90
11650;DHT22;5881;48.522;7.682;2022-10-31T04:25:51;10.70;99.90
11650;DHT22;5881;48.522;7.682;2022-10-31T04:28:17;10.70;99.90
11650;DHT22;5881;48.522;7.682;2022-10-31T04:30:43;10.70;99.90
11650;DHT22;5881;48.522;7.682;2022-10-31T04:33:08;10.60;99.90
11650;DHT22;5881;48.522;7.682;2022-10-31T04:35:34;10.60;99.90
11650;DHT22;5881;48.522;7.682;2022-10-31T04:37:59;10.60;99.90
11650;DHT22;5881;48.522;7.682;2022-10-31T04:40:25;10.60;99.90
11650;DHT22;5881;48.522;7.682;2022-10-31T04:42:50;10.60;99.90
11650;DHT22;5881;48.522;7.682;2022-10-31T04:45:16;10.70;99.90
11650;DHT22;5881;48.522;7.682;2022-10-31T04:47:42;10.60;99.90
11650;DHT22;5881;48.522;7.682;2022-10-31T04:50:07;10.60;99.90
11650;DHT22;5881;48.522;7.682;2022-10-31T04:52:42;10.60;99.90
11650;DHT22;5881;48.522;7.682;2022-10-31T04:55:08;10.60;99.90
11650;DHT22;5881;48.522;7.682;2022-10-31T04:57:45;10.60;99.90
11650;DHT22;5881;48.522;7.682;2022-10-31T05:00:12;10.60;99.90
11650;DHT22;5881;48.522;7.682;2022-10-31T05:02:48;10.60;99.90
11650;DHT22;5881;48.522;7.682;2022-10-31T05:05:15;10.50;99.90
11650;DHT22;5881;48.522;7.682;2022-10-31T05:07:43;10.50;99.90
11650;DHT22;5881;48.522;7.682;2022-10-31T05:10:15;10.40;99.90
11650;DHT22;5881;48.522;7.682;2022-10-31T05:12:48;10.50;99.90
11650;DHT22;5881;48.522;7.682;2022-10-31T05:15:15;10.50;99.90
11650;DHT22;5881;48.522;7.682;2022-10-31T05:17:41;10.60;99.90
11650;DHT22;5881;48.522;7.682;2022-10-31T05:20:07;10.60;99.90
11650;DHT22;5881;48.522;7.682;2022-10-31T05:22:32;10.60;99.90
11650;DHT22;5881;48.522;7.682;2022-10-31T05:24:58;10.50;99.90
11650;DHT22;5881;48.522;7.682;2022-10-31T05:27:23;10.60;99.90
11650;DHT22;5881;48.522;7.682;2022-10-31T05:29:49;10.50;99.90
11650;DHT22;5881;48.522;7.682;2022-10-31T05:32:18;10.50;99.90
11650;DHT22;5881;48.522;7.682;2022-10-31T05:34:43;10.40;99.90
11650;DHT22;5881;48.522;7.682;2022-10-31T05:37:09;10.40;99.90
11650;DHT22;5881;48.522;7.682;2022-10-31T05:39:35;10.40;99.90
11650;DHT22;5881;48.522;7.682;2022-10-31T05:42:00;10.40;99.90
11650;DHT22;5881;48.522;7.682;2022-10-31T05:44:26;10.40;99.90
11650;DHT22;5881;48.522;7.682;2022-10-31T05:46:51;10.40;99.90
11650;DHT22;5881;48.522;7.682;2022-10-31T05:49:17;10.40;99.90
11650;DHT22;5881;48.522;7.682;2022-10-31T05:51:43;10.30;99.90
11650;DHT22;5881;48.522;7.682;2022-10-31T05:54:08;10.40;99.90
11650;DHT22;5881;48.522;7.682;2022-10-31T05:56:34;10.40;99.90
11650;DHT22;5881;48.522;7.682;2022-10-31T05:58:59;10.40;99.90
11650;DHT22;5881;48.522;7.682;2022-10-31T06:01:25;10.40;99.90
11650;DHT22;5881;48.522;7.682;2022-10-31T06:03:51;10.40;99.90
11650;DHT22;5881;48.522;7.682;2022-10-31T06:06:16;10.50;99.90
11650;DHT22;5881;48.522;7.682;2022-10-31T06:08:42;10.60;99.90
11650;DHT22;5881;48.522;7.682;2022-10-31T06:11:08;10.50;99.90
11650;DHT22;5881;48.522;7.682;2022-10-31T06:13:34;10.60;99.90
11650;DHT22;5881;48.522;7.682;2022-10-31T06:15:59;10.60;99.90
11650;DHT22;5881;48.522;7.682;2022-10-31T06:18:25;10.60;99.90
11650;DHT22;5881;48.522;7.682;2022-10-31T06:20:50;10.60;99.90
11650;DHT22;5881;48.522;7.682;2022-10-31T06:23:16;10.60;99.90
11650;DHT22;5881;48.522;7.682;2022-10-31T06:25:41;10.70;99.90
11650;DHT22;5881;48.522;7.682;2022-10-31T06:28:07;10.70;99.90
11650;DHT22;5881;48.522;7.682;2022-10-31T06:30:33;10.90;99.90
11650;DHT22;5881;48.522;7.682;2022-10-31T06:33:02;10.70;99.90
11650;DHT22;5881;48.522;7.682;2022-10-31T06:35:28;10.80;99.90
11650;DHT22;5881;48.522;7.682;2022-10-31T06:37:54;10.80;99.90
11650;DHT22;5881;48.522;7.682;2022-10-31T06:40:20;10.80;99.90
11650;DHT22;5881;48.522;7.682;2022-10-31T06:42:46;11.00;99.90
11650;DHT22;5881;48.522;7.682;2022-10-31T06:45:12;10.90;99.90
11650;DHT22;5881;48.522;7.682;2022-10-31T06:47:38;10.90;99.90
11650;DHT22;5881;48.522;7.682;2022-10-31T06:50:04;11.00;99.90
11650;DHT22;5881;48.522;7.682;2022-10-31T06:52:29;11.00;99.90
11650;DHT22;5881;48.522;7.682;2022-10-31T06:54:55;11.10;99.90
11650;DHT22;5881;48.522;7.682;2022-10-31T06:57:21;11.20;99.90
11650;DHT22;5881;48.522;7.682;2022-10-31T06:59:46;11.20;99.90
11650;DHT22;5881;48.522;7.682;2022-10-31T07:02:12;11.30;99.90
11650;DHT22;5881;48.522;7.682;2022-10-31T07:04:37;11.40;99.90
11650;DHT22;5881;48.522;7.682;2022-10-31T07:07:03;11.40;99.90
11650;DHT22;5881;48.522;7.682;2022-10-31T07:09:29;11.50;99.90
11650;DHT22;5881;48.522;7.682;2022-10-31T07:11:54;11.50;99.90
11650;DHT22;5881;48.522;7.682;2022-10-31T07:14:20;11.60;99.90
11650;DHT22;5881;48.522;7.682;2022-10-31T07:16:50;11.60;99.90
11650;DHT22;5881;48.522;7.682;2022-10-31T07:19:16;11.70;99.90
11650;DHT22;5881;48.522;7.682;2022-10-31T07:21:42;11.90;99.90
11650;DHT22;5881;48.522;7.682;2022-10-31T07:24:08;12.00;99.90
11650;DHT22;5881;48.522;7.682;2022-10-31T07:26:33;12.20;99.90
11650;DHT22;5881;48.522;7.682;2022-10-31T07:28:59;12.40;54.80
11650;DHT22;5881;48.522;7.682;2022-10-31T07:31:25;12.70;1.00
11650;DHT22;5881;48.522;7.682;2022-10-31T07:33:51;13.10;1.00
11650;DHT22;5881;48.522;7.682;2022-10-31T07:36:17;13.40;99.90
11650;DHT22;5881;48.522;7.682;2022-10-31T07:38:42;13.50;99.90
11650;DHT22;5881;48.522;7.682;2022-10-31T07:41:08;13.60;99.90
11650;DHT22;5881;48.522;7.682;2022-10-31T07:43:34;13.60;1.00
11650;DHT22;5881;48.522;7.682;2022-10-31T07:45:59;13.90;99.90
11650;DHT22;5881;48.522;7.682;2022-10-31T07:48:25;14.00;1.00
11650;DHT22;5881;48.522;7.682;2022-10-31T07:50:50;13.80;1.00
11650;DHT22;5881;48.522;7.682;2022-10-31T07:53:16;14.10;1.00
11650;DHT22;5881;48.522;7.682;2022-10-31T07:55:42;14.00;1.00
11650;DHT22;5881;48.522;7.682;2022-10-31T07:58:10;14.30;1.00
11650;DHT22;5881;48.522;7.682;2022-10-31T08:00:40;14.00;1.00
11650;DHT22;5881;48.522;7.682;2022-10-31T08:03:07;14.00;1.00
11650;DHT22;5881;48.522;7.682;2022-10-31T08:05:34;13.70;1.00
11650;DHT22;5881;48.522;7.682;2022-10-31T08:08:00;13.90;1.00
11650;DHT22;5881;48.522;7.682;2022-10-31T08:10:27;13.90;1.00
11650;DHT22;5881;48.522;7.682;2022-10-31T08:13:00;14.00;1.00
11650;DHT22;5881;48.522;7.682;2022-10-31T08:15:26;13.90;1.00
11650;DHT22;5881;48.522;7.682;2022-10-31T08:17:52;13.80;1.00
11650;DHT22;5881;48.522;7.682;2022-10-31T08:20:18;13.80;1.00
11650;DHT22;5881;48.522;7.682;2022-10-31T08:23:02;13.80;1.00
11650;DHT22;5881;48.522;7.682;2022-10-31T08:25:30;13.80;1.00
11650;DHT22;5881;48.522;7.682;2022-10-31T08:27:57;13.80;1.00
11650;DHT22;5881;48.522;7.682;2022-10-31T08:30:25;13.90;1.00
11650;DHT22;5881;48.522;7.682;2022-10-31T08:35:32;14.10;1.00
11650;DHT22;5881;48.522;7.682;2022-10-31T08:37:58;14.10;1.00
11650;DHT22;5881;48.522;7.682;2022-10-31T08:40:25;14.10;1.00
11650;DHT22;5881;48.522;7.682;2022-10-31T08:43:02;14.10;1.00
11650;DHT22;5881;48.522;7.682;2022-10-31T08:45:29;14.00;1.00
11650;DHT22;5881;48.522;7.682;2022-10-31T08:48:00;14.10;1.00
11650;DHT22;5881;48.522;7.682;2022-10-31T08:50:27;14.00;99.90
11650;DHT22;5881;48.522;7.682;2022-10-31T08:52:53;14.10;1.00
11650;DHT22;5881;48.522;7.682;2022-10-31T08:55:19;14.00;1.00
11650;DHT22;5881;48.522;7.682;2022-10-31T08:57:44;14.00;1.00
11650;DHT22;5881;48.522;7.682;2022-10-31T09:00:10;14.00;1.00
11650;DHT22;5881;48.522;7.682;2022-10-31T09:02:36;14.10;1.00
11650;DHT22;5881;48.522;7.682;2022-10-31T09:05:04;14.10;1.00
11650;DHT22;5881;48.522;7.682;2022-10-31T09:07:29;14.10;1.00
11650;DHT22;5881;48.522;7.682;2022-10-31T09:09:55;14.10;1.00
11650;DHT22;5881;48.522;7.682;2022-10-31T09:12:21;14.20;1.00
11650;DHT22;5881;48.522;7.682;2022-10-31T09:14:49;14.20;1.00
11650;DHT22;5881;48.522;7.682;2022-10-31T09:17:14;14.30;1.00
11650;DHT22;5881;48.522;7.682;2022-10-31T09:19:40;14.40;99.90
11650;DHT22;5881;48.522;7.682;2022-10-31T09:22:05;14.40;99.90
11650;DHT22;5881;48.522;7.682;2022-10-31T09:24:31;14.60;99.90
11650;DHT22;5881;48.522;7.682;2022-10-31T09:26:58;14.50;99.90
11650;DHT22;5881;48.522;7.682;2022-10-31T09:29:24;14.80;99.90
11650;DHT22;5881;48.522;7.682;2022-10-31T09:31:49;15.00;99.90
11650;DHT22;5881;48.522;7.682;2022-10-31T09:34:15;14.80;99.90
11650;DHT22;5881;48.522;7.682;2022-10-31T09:36:40;14.90;99.90
11650;DHT22;5881;48.522;7.682;2022-10-31T09:39:08;14.80;99.90
11650;DHT22;5881;48.522;7.682;2022-10-31T09:44:46;14.70;99.90
11650;DHT22;5881;48.522;7.682;2022-10-31T09:47:37;14.90;99.90
11650;DHT22;5881;48.522;7.682;2022-10-31T09:50:54;14.70;99.90
11650;DHT22;5881;48.522;7.682;2022-10-31T09:53:10;14.60;99.90
11650;DHT22;5881;48.522;7.682;2022-10-31T09:55:40;14.50;99.90
11650;DHT22;5881;48.522;7.682;2022-10-31T09:58:16;14.60;99.90
11650;DHT22;5881;48.522;7.682;2022-10-31T10:00:44;14.60;99.90
11650;DHT22;5881;48.522;7.682;2022-10-31T10:03:31;14.70;99.90
11650;DHT22;5881;48.522;7.682;2022-10-31T10:08:45;14.80;99.90
11650;DHT22;5881;48.522;7.682;2022-10-31T10:11:55;14.70;99.90
11650;DHT22;5881;48.522;7.682;2022-10-31T10:14:25;14.80;99.90
11650;DHT22;5881;48.522;7.682;2022-10-31T10:17:24;15.00;99.90
11650;DHT22;5881;48.522;7.682;2022-10-31T10:20:18;14.90;99.90
11650;DHT22;5881;48.522;7.682;2022-10-31T10:25:25;14.80;99.90
11650;DHT22;5881;48.522;7.682;2022-10-31T10:30:51;14.80;99.90
11650;DHT22;5881;48.522;7.682;2022-10-31T10:33:40;15.10;99.90
11650;DHT22;5881;48.522;7.682;2022-10-31T10:36:17;15.30;99.90
11650;DHT22;5881;48.522;7.682;2022-10-31T10:38:57;15.50;99.90
11650;DHT22;5881;48.522;7.682;2022-10-31T10:41:27;15.50;99.90
11650;DHT22;5881;48.522;7.682;2022-10-31T10:43:55;15.40;99.90
11650;DHT22;5881;48.522;7.682;2022-10-31T10:49:38;15.40;99.90
11650;DHT22;5881;48.522;7.682;2022-10-31T11:00:36;15.50;99.90
11650;DHT22;5881;48.522;7.682;2022-10-31T11:03:03;15.70;99.90
11650;DHT22;5881;48.522;7.682;2022-10-31T11:05:46;15.60;99.90
11650;DHT22;5881;48.522;7.682;2022-10-31T11:08:27;15.50;99.90
11650;DHT22;5881;48.522;7.682;2022-10-31T11:13:42;15.50;99.90
11650;DHT22;5881;48.522;7.682;2022-10-31T11:16:31;15.60;99.90
11650;DHT22;5881;48.522;7.682;2022-10-31T11:19:06;15.40;99.90
11650;DHT22;5881;48.522;7.682;2022-10-31T11:21:33;15.40;99.90
11650;DHT22;5881;48.522;7.682;2022-10-31T11:24:12;15.40;99.90
11650;DHT22;5881;48.522;7.682;2022-10-31T11:26:40;15.30;99.90
11650;DHT22;5881;48.522;7.682;2022-10-31T11:29:21;15.40;99.90
11650;DHT22;5881;48.522;7.682;2022-10-31T11:31:51;15.40;99.90
11650;DHT22;5881;48.522;7.682;2022-10-31T11:34:42;15.40;99.90
11650;DHT22;5881;48.522;7.682;2022-10-31T11:37:16;15.40;99.90
11650;DHT22;5881;48.522;7.682;2022-10-31T11:39:44;15.40;99.90
11650;DHT22;5881;48.522;7.682;2022-10-31T11:42:10;15.60;99.90
11650;DHT22;5881;48.522;7.682;2022-10-31T11:44:41;15.70;99.90
11650;DHT22;5881;48.522;7.682;2022-10-31T11:47:14;15.70;99.90
11650;DHT22;5881;48.522;7.682;2022-10-31T11:49:47;16.00;99.90
11650;DHT22;5881;48.522;7.682;2022-10-31T11:54:58;17.40;99.90
11650;DHT22;5881;48.522;7.682;2022-10-31T11:57:42;17.70;99.90
11650;DHT22;5881;48.522;7.682;2022-10-31T12:03:01;18.30;99.90
11650;DHT22;5881;48.522;7.682;2022-10-31T12:05:29;18.10;99.90
11650;DHT22;5881;48.522;7.682;2022-10-31T12:07:59;18.10;99.90
11650;DHT22;5881;48.522;7.682;2022-10-31T12:10:33;18.10;99.90
11650;DHT22;5881;48.522;7.682;2022-10-31T12:15:37;17.40;99.90
11650;DHT22;5881;48.522;7.682;2022-10-31T12:27:01;18.30;99.90
11650;DHT22;5881;48.522;7.682;2022-10-31T12:29:51;18.40;99.90
11650;DHT22;5881;48.522;7.682;2022-10-31T12:32:40;18.30;99.90
11650;DHT22;5881;48.522;7.682;2022-10-31T12:35:40;18.20;99.90
11650;DHT22;5881;48.522;7.682;2022-10-31T12:38:32;18.10;99.90
11650;DHT22;5881;48.522;7.682;2022-10-31T12:41:52;17.80;97.10
11650;DHT22;5881;48.522;7.682;2022-10-31T12:44:34;17.70;95.00
11650;DHT22;5881;48.522;7.682;2022-10-31T12:47:28;17.40;94.70
11650;DHT22;5881;48.522;7.682;2022-10-31T12:50:33;17.20;94.90
11650;DHT22;5881;48.522;7.682;2022-10-31T12:56:00;17.60;99.20
11650;DHT22;5881;48.522;7.682;2022-10-31T12:58:35;17.80;99.10
11650;DHT22;5881;48.522;7.682;2022-10-31T13:01:14;17.70;97.10
11650;DHT22;5881;48.522;7.682;2022-10-31T13:04:14;17.60;95.90
11650;DHT22;5881;48.522;7.682;2022-10-31T13:06:49;18.00;98.80
11650;DHT22;5881;48.522;7.682;2022-10-31T13:09:25;18.10;99.60
11650;DHT22;5881;48.522;7.682;2022-10-31T13:12:04;17.90;97.40
11650;DHT22;5881;48.522;7.682;2022-10-31T13:14:44;17.80;96.80
11650;DHT22;5881;48.522;7.682;2022-10-31T13:17:20;17.70;98.10
11650;DHT22;5881;48.522;7.682;2022-10-31T13:19:47;17.70;99.00
11650;DHT22;5881;48.522;7.682;2022-10-31T13:22:21;17.60;96.20
11650;DHT22;5881;48.522;7.682;2022-10-31T13:28:00;17.50;97.00
11650;DHT22;5881;48.522;7.682;2022-10-31T13:30:29;17.20;94.40
11650;DHT22;5881;48.522;7.682;2022-10-31T13:33:08;17.20;94.10
11650;DHT22;5881;48.522;7.682;2022-10-31T13:38:52;17.40;95.00
11650;DHT22;5881;48.522;7.682;2022-10-31T13:41:37;17.40;94.10
11650;DHT22;5881;48.522;7.682;2022-10-31T13:44:23;17.50;94.20
11650;DHT22;5881;48.522;7.682;2022-10-31T13:46:53;17.60;94.30
11650;DHT22;5881;48.522;7.682;2022-10-31T13:54:37;17.60;92.00
11650;DHT22;5881;48.522;7.682;2022-10-31T13:57:17;17.60;93.30
11650;DHT22;5881;48.522;7.682;2022-10-31T13:59:49;17.60;93.10
11650;DHT22;5881;48.522;7.682;2022-10-31T14:02:17;17.40;92.20
11650;DHT22;5881;48.522;7.682;2022-10-31T14:05:26;17.50;93.30
11650;DHT22;5881;48.522;7.682;2022-10-31T14:07:53;17.50;90.60
11650;DHT22;5881;48.522;7.682;2022-10-31T14:10:30;17.40;87.60
11650;DHT22;5881;48.522;7.682;2022-10-31T14:13:23;17.30;89.40
11650;DHT22;5881;48.522;7.682;2022-10-31T14:15:56;17.10;90.30
11650;DHT22;5881;48.522;7.682;2022-10-31T14:18:28;17.10;91.00
11650;DHT22;5881;48.522;7.682;2022-10-31T14:20:55;17.20;91.10
11650;DHT22;5881;48.522;7.682;2022-10-31T14:23:38;17.20;92.20
11650;DHT22;5881;48.522;7.682;2022-10-31T14:32:04;17.10;94.50
11650;DHT22;5881;48.522;7.682;2022-10-31T14:34:39;17.10;94.40
11650;DHT22;5881;48.522;7.682;2022-10-31T14:51:00;17.10;99.10
11650;DHT22;5881;48.522;7.682;2022-10-31T14:53:31;17.10;97.80
11650;DHT22;5881;48.522;7.682;2022-10-31T14:55:59;17.00;97.60
11650;DHT22;5881;48.522;7.682;2022-10-31T14:58:43;16.90;94.80
11650;DHT22;5881;48.522;7.682;2022-10-31T15:01:39;16.70;94.50
11650;DHT22;5881;48.522;7.682;2022-10-31T15:04:18;16.70;96.50
11650;DHT22;5881;48.522;7.682;2022-10-31T15:06:47;16.70;97.00
11650;DHT22;5881;48.522;7.682;2022-10-31T15:09:24;16.60;98.50
11650;DHT22;5881;48.522;7.682;2022-10-31T15:11:49;16.50;96.20
11650;DHT22;5881;48.522;7.682;2022-10-31T15:14:26;16.50;98.30
11650;DHT22;5881;48.522;7.682;2022-10-31T15:16:53;16.50;96.10
11650;DHT22;5881;48.522;7.682;2022-10-31T15:19:24;16.40;99.80
11650;DHT22;5881;48.522;7.682;2022-10-31T15:21:53;16.40;99.70
11650;DHT22;5881;48.522;7.682;2022-10-31T15:24:19;16.30;99.90
11650;DHT22;5881;48.522;7.682;2022-10-31T15:26:48;16.30;99.90
11650;DHT22;5881;48.522;7.682;2022-10-31T15:29:25;16.30;99.90
11650;DHT22;5881;48.522;7.682;2022-10-31T15:31:55;16.20;99.90
11650;DHT22;5881;48.522;7.682;2022-10-31T15:36:51;15.90;99.90
11650;DHT22;5881;48.522;7.682;2022-10-31T15:39:17;15.90;99.90
11650;DHT22;5881;48.522;7.682;2022-10-31T15:41:53;15.80;99.90
11650;DHT22;5881;48.522;7.682;2022-10-31T15:44:25;15.80;99.90
11650;DHT22;5881;48.522;7.682;2022-10-31T15:47:05;15.80;99.90
11650;DHT22;5881;48.522;7.682;2022-10-31T15:49:35;15.80;99.90
11650;DHT22;5881;48.522;7.682;2022-10-31T15:54:53;15.70;99.90
11650;DHT22;5881;48.522;7.682;2022-10-31T15:57:21;15.50;99.90
11650;DHT22;5881;48.522;7.682;2022-10-31T15:59:48;15.40;99.90
11650;DHT22;5881;48.522;7.682;2022-10-31T16:02:21;15.30;99.90
11650;DHT22;5881;48.522;7.682;2022-10-31T16:04:57;15.20;1.00
11650;DHT22;5881;48.522;7.682;2022-10-31T16:07:24;15.10;1.00
11650;DHT22;5881;48.522;7.682;2022-10-31T16:09:59;15.00;99.90
11650;DHT22;5881;48.522;7.682;2022-10-31T16:12:35;14.90;1.00
11650;DHT22;5881;48.522;7.682;2022-10-31T16:15:01;14.80;1.00
11650;DHT22;5881;48.522;7.682;2022-10-31T16:17:27;14.70;1.00
11650;DHT22;5881;48.522;7.682;2022-10-31T16:20:06;14.60;1.00
11650;DHT22;5881;48.522;7.682;2022-10-31T16:22:36;14.60;1.00
11650;DHT22;5881;48.522;7.682;2022-10-31T16:25:20;14.50;1.00
11650;DHT22;5881;48.522;7.682;2022-10-31T16:28:01;14.50;99.90
11650;DHT22;5881;48.522;7.682;2022-10-31T16:30:43;14.50;1.00
11650;DHT22;5881;48.522;7.682;2022-10-31T16:33:34;14.50;1.00
11650;DHT22;5881;48.522;7.682;2022-10-31T16:38:55;14.30;1.00
11650;DHT22;5881;48.522;7.682;2022-10-31T16:41:21;14.30;46.30
11650;DHT22;5881;48.522;7.682;2022-10-31T16:43:47;14.20;99.90
11650;DHT22;5881;48.522;7.682;2022-10-31T16:46:14;14.10;99.90
11650;DHT22;5881;48.522;7.682;2022-10-31T16:48:40;14.00;99.90
11650;DHT22;5881;48.522;7.682;2022-10-31T16:51:07;14.10;99.90
11650;DHT22;5881;48.522;7.682;2022-10-31T16:53:33;14.10;99.90
11650;DHT22;5881;48.522;7.682;2022-10-31T16:55:59;14.00;1.00
11650;DHT22;5881;48.522;7.682;2022-10-31T16:58:29;14.00;1.00
11650;DHT22;5881;48.522;7.682;2022-10-31T17:00:55;14.00;1.00
11650;DHT22;5881;48.522;7.682;2022-10-31T17:03:21;14.00;1.00
11650;DHT22;5881;48.522;7.682;2022-10-31T17:05:47;13.90;1.00
11650;DHT22;5881;48.522;7.682;2022-10-31T17:08:13;13.90;1.00
11650;DHT22;5881;48.522;7.682;2022-10-31T17:10:40;13.90;1.00
11650;DHT22;5881;48.522;7.682;2022-10-31T17:13:12;13.80;1.00
11650;DHT22;5881;48.522;7.682;2022-10-31T17:15:46;13.80;1.00
11650;DHT22;5881;48.522;7.682;2022-10-31T17:18:13;13.80;1.00
11650;DHT22;5881;48.522;7.682;2022-10-31T17:20:40;13.80;1.00
11650;DHT22;5881;48.522;7.682;2022-10-31T17:23:06;13.80;1.00
11650;DHT22;5881;48.522;7.682;2022-10-31T17:25:31;13.80;1.00
11650;DHT22;5881;48.522;7.682;2022-10-31T17:27:57;13.70;1.00
11650;DHT22;5881;48.522;7.682;2022-10-31T17:30:24;13.70;55.40
11650;DHT22;5881;48.522;7.682;2022-10-31T17:32:50;13.70;25.00
11650;DHT22;5881;48.522;7.682;2022-10-31T17:35:17;13.70;23.20
11650;DHT22;5881;48.522;7.682;2022-10-31T17:37:44;13.70;32.00
11650;DHT22;5881;48.522;7.682;2022-10-31T17:40:11;13.70;99.90
11650;DHT22;5881;48.522;7.682;2022-10-31T17:42:37;13.60;96.80
11650;DHT22;5881;48.522;7.682;2022-10-31T17:45:04;13.50;99.90
11650;DHT22;5881;48.522;7.682;2022-10-31T17:47:30;13.40;99.90
11650;DHT22;5881;48.522;7.682;2022-10-31T17:49:56;13.40;99.90
11650;DHT22;5881;48.522;7.682;2022-10-31T17:52:21;13.30;99.90
11650;DHT22;5881;48.522;7.682;2022-10-31T17:54:47;13.20;99.90
11650;DHT22;5881;48.522;7.682;2022-10-31T17:57:13;13.20;99.90
11650;DHT22;5881;48.522;7.682;2022-10-31T17:59:39;13.10;99.90
11650;DHT22;5881;48.522;7.682;2022-10-31T18:02:04;13.10;99.90
11650;DHT22;5881;48.522;7.682;2022-10-31T18:04:34;13.10;99.90